Aeroporto :
LOGIN :

Iscrizione | Disclaimer

   EN    FR    IT 

 










Sommario :    VFR   VFR Marginale   IFR   IFR Intensivo   IFR Molto Intensivo
Visibilità : 
Base nubi : 
>= 8 km
>= 3000ft
5 / 8 km
1000 / 3000 ft
1500m / 5 km
500 / 1000 ft
800 / 1500m
200 / 500 ft
< 800m
< 200 ft
Simboli :   Temporali  Nebbia  Neve Forte  Precipitazioni Forti  Vento > 20 kt
SIGMETs :   Varie  Temporali  Ghiacco  Turbolenza  Onda orograficha  Ceneri Vulcaniche






- Altitudine del aeroporto : 397 ft
- Codice IATA : IAS


LRIA - Iasi

ULTIMO METAR :
  • 270330Z VRB01KT CAVOK 06/05 Q0996 R14/19//95

METARs OBSOLETI :
  • 270300Z 33007KT 280V360 9999 -RA NSC 07/05 Q0996
  • 270230Z 31005KT CAVOK 07/04 Q0996
  • 270200Z 32005KT 9999 -RA NSC 07/03 Q0996
  • 270130Z 31006KT 270V340 9999 -RA NSC 07/02 Q0996
  • 270100Z 28004KT 240V330 CAVOK 06/01 Q0996

TAF TAF LRIA
Valido dal 27 a 03 ore il 27 a 12 ore UTC


270200Z 2703/2712 VRB04KT 9999 SCT045
BECMG 2703/2705 31012KT SCT040CB
BECMG 2706/2708 5000 -RA BKN010 BKN025



MetMap, La meteo Aeronautica in un colpo d'occhio ! - Copyright ORBIFLY Dicembre 2007 - Disclaimer

ORBIFLY MET'MAP TEAM :

Programmazione e sviluppo : Alexandra Zaïnal
Concezione : Baudouin d'Aumeries
Aiuto per la programmazione : Marc-Olivier Méhu
Supporto tecnico e logistico : Manuel Goepfert
Aiuto per la traduzione : Arnaldo La Scala

Contatto : metmap@orbifly.com




FONTI E CREDITI :

   NOAA